createdAt,value
2023-03-26T00:01:37.067Z,11.40
2023-03-26T00:04:05.929Z,11.40
2023-03-26T00:06:37.825Z,11.30
2023-03-26T00:09:06.586Z,11.40
2023-03-26T00:11:33.872Z,11.40
2023-03-26T00:14:00.995Z,11.50
2023-03-26T00:16:29.834Z,11.60
2023-03-26T00:18:57.989Z,11.60
2023-03-26T00:21:29.198Z,11.60
2023-03-26T00:24:01.550Z,11.50
2023-03-26T00:26:31.271Z,11.60
2023-03-26T00:28:58.867Z,11.70
2023-03-26T00:31:29.594Z,11.80
2023-03-26T00:33:56.821Z,11.70
2023-03-26T00:36:27.739Z,11.80
2023-03-26T00:38:55.070Z,11.70
2023-03-26T00:41:28.542Z,11.70
2023-03-26T00:43:57.323Z,11.50
2023-03-26T00:46:30.039Z,11.40
2023-03-26T00:49:00.345Z,11.40
2023-03-26T00:51:28.107Z,11.30
2023-03-26T00:53:55.659Z,11.10
2023-03-26T00:56:22.808Z,11.10
2023-03-26T00:58:50.375Z,11.00
2023-03-26T01:01:28.759Z,11.00
2023-03-26T01:04:08.416Z,11.10
2023-03-26T01:06:37.330Z,11.20
2023-03-26T01:09:16.385Z,11.20
2023-03-26T01:11:43.505Z,11.20
2023-03-26T01:14:30.971Z,11.20
2023-03-26T01:16:59.835Z,11.20
2023-03-26T01:19:45.421Z,11.00
2023-03-26T01:22:20.306Z,10.80
2023-03-26T01:24:53.491Z,10.70
2023-03-26T01:27:26.030Z,10.60
2023-03-26T01:29:57.894Z,10.60
2023-03-26T01:32:28.030Z,10.50
2023-03-26T01:35:24.947Z,10.50
2023-03-26T01:38:11.153Z,10.50
2023-03-26T01:41:22.763Z,10.50
2023-03-26T01:44:21.682Z,10.60
2023-03-26T01:46:48.742Z,10.60
2023-03-26T01:49:16.001Z,10.60
2023-03-26T01:51:43.123Z,10.60
2023-03-26T01:54:13.884Z,10.50
2023-03-26T01:57:04.348Z,10.50
2023-03-26T01:59:49.132Z,10.50
2023-03-26T02:02:43.217Z,10.40
2023-03-26T02:05:16.457Z,10.50
2023-03-26T02:08:06.377Z,10.60
2023-03-26T02:10:36.921Z,10.60
2023-03-26T02:13:03.965Z,10.60
2023-03-26T02:15:31.139Z,10.60
2023-03-26T02:17:59.875Z,10.60
2023-03-26T02:20:30.268Z,10.50
2023-03-26T02:22:57.694Z,10.60
2023-03-26T02:25:24.727Z,10.60
2023-03-26T02:27:52.428Z,10.70
2023-03-26T02:30:21.798Z,10.80
2023-03-26T02:32:52.472Z,10.90
2023-03-26T02:35:19.983Z,10.80
2023-03-26T02:37:51.139Z,10.80
2023-03-26T02:40:22.515Z,10.70
2023-03-26T02:42:49.737Z,10.70
2023-03-26T02:45:16.893Z,10.70
2023-03-26T02:47:46.160Z,10.70
2023-03-26T02:50:13.387Z,10.80
2023-03-26T02:52:40.484Z,10.70
2023-03-26T02:55:07.873Z,10.80
2023-03-26T02:57:34.978Z,10.80
2023-03-26T03:00:06.015Z,10.80
2023-03-26T03:02:38.905Z,10.80
2023-03-26T03:05:08.108Z,10.70
2023-03-26T03:07:38.016Z,10.60
2023-03-26T03:10:08.882Z,10.70
2023-03-26T03:12:36.946Z,10.80
2023-03-26T03:15:04.347Z,10.80
2023-03-26T03:17:31.497Z,10.90
2023-03-26T03:19:58.594Z,11.00
2023-03-26T03:22:25.621Z,11.00
2023-03-26T03:24:52.690Z,11.00
2023-03-26T03:27:21.576Z,11.10
2023-03-26T03:29:48.633Z,11.10
2023-03-26T03:32:15.990Z,11.10
2023-03-26T03:34:43.061Z,11.00
2023-03-26T03:37:10.118Z,10.90
2023-03-26T03:39:37.120Z,10.80
2023-03-26T03:42:06.274Z,10.80
2023-03-26T03:44:33.394Z,10.60
2023-03-26T03:47:00.654Z,10.40
2023-03-26T03:49:27.807Z,10.30
2023-03-26T03:51:55.174Z,10.40
2023-03-26T03:54:22.206Z,10.20
2023-03-26T03:56:49.302Z,10.20
2023-03-26T03:59:16.428Z,10.30
2023-03-26T04:01:47.553Z,10.30
2023-03-26T04:04:14.634Z,10.30
2023-03-26T04:06:41.704Z,10.30
2023-03-26T04:09:10.389Z,10.30
2023-03-26T04:11:37.475Z,10.30
2023-03-26T04:14:04.587Z,10.30
2023-03-26T04:16:31.639Z,10.20
2023-03-26T04:18:58.765Z,10.10
2023-03-26T04:21:26.437Z,10.10
2023-03-26T04:23:54.407Z,10.00
2023-03-26T04:26:21.554Z,10.10
2023-03-26T04:28:50.185Z,10.10
2023-03-26T04:31:25.013Z,10.10
2023-03-26T04:33:55.443Z,10.10
2023-03-26T04:36:30.227Z,10.10
2023-03-26T04:38:58.601Z,10.20
2023-03-26T04:41:26.503Z,10.20
2023-03-26T04:43:55.628Z,10.20
2023-03-26T04:46:23.637Z,10.20
2023-03-26T04:48:51.536Z,10.30
2023-03-26T04:51:19.425Z,10.20
2023-03-26T04:53:54.218Z,10.20
2023-03-26T04:56:44.243Z,10.20
2023-03-26T04:59:13.998Z,10.20
2023-03-26T05:01:41.964Z,10.10
2023-03-26T05:04:09.083Z,10.10
2023-03-26T05:06:38.192Z,10.10
2023-03-26T05:09:05.156Z,10.20
2023-03-26T05:11:32.382Z,10.20
2023-03-26T05:13:59.455Z,10.30
2023-03-26T05:16:26.630Z,10.30
2023-03-26T05:18:54.242Z,10.30
2023-03-26T05:21:22.533Z,10.30
2023-03-26T05:23:49.623Z,10.40
2023-03-26T05:26:16.590Z,10.30
2023-03-26T05:28:43.645Z,10.30
2023-03-26T05:31:10.974Z,10.30
2023-03-26T05:33:38.489Z,10.30
2023-03-26T05:36:09.429Z,10.40
2023-03-26T05:38:39.666Z,10.50
2023-03-26T05:41:08.307Z,10.60
2023-03-26T05:43:35.463Z,10.70
2023-03-26T05:46:03.907Z,10.80
2023-03-26T05:48:31.010Z,11.00
2023-03-26T05:50:58.219Z,11.00
2023-03-26T05:53:26.284Z,11.10
2023-03-26T05:56:00.946Z,11.20
2023-03-26T05:58:32.565Z,11.20
2023-03-26T06:01:02.820Z,11.10
2023-03-26T06:03:29.913Z,11.20
2023-03-26T06:05:57.294Z,11.30
2023-03-26T06:08:24.341Z,11.20
2023-03-26T06:10:51.422Z,11.10
2023-03-26T06:13:19.259Z,11.00
2023-03-26T06:15:46.717Z,11.00
2023-03-26T06:18:13.906Z,11.10
2023-03-26T06:20:57.077Z,11.10
2023-03-26T06:23:24.525Z,11.10
2023-03-26T06:25:51.730Z,11.10
2023-03-26T06:28:18.828Z,11.20
2023-03-26T06:30:46.084Z,11.40
2023-03-26T06:33:13.190Z,11.50
2023-03-26T06:35:40.691Z,11.50
2023-03-26T06:38:07.986Z,11.50
2023-03-26T06:40:35.377Z,11.50
2023-03-26T06:43:08.557Z,11.50
2023-03-26T06:45:38.323Z,11.80
2023-03-26T06:48:07.238Z,12.00
2023-03-26T06:50:34.690Z,12.30
2023-03-26T06:53:02.063Z,12.60
2023-03-26T06:55:32.193Z,13.00
2023-03-26T06:57:59.537Z,13.20
2023-03-26T07:00:26.630Z,13.40
2023-03-26T07:02:54.047Z,13.80
2023-03-26T07:05:21.528Z,14.10
2023-03-26T07:07:49.982Z,14.40
2023-03-26T07:10:17.267Z,14.60
2023-03-26T07:12:44.639Z,14.60
2023-03-26T07:15:12.041Z,14.50
2023-03-26T07:17:39.647Z,14.90
2023-03-26T07:20:11.623Z,15.50
2023-03-26T07:22:41.690Z,15.70
2023-03-26T07:25:12.242Z,15.60
2023-03-26T07:28:03.446Z,15.60
2023-03-26T07:30:53.703Z,15.60
2023-03-26T07:33:31.152Z,15.80
2023-03-26T07:36:04.915Z,16.00
2023-03-26T07:38:53.483Z,16.20
2023-03-26T07:41:37.003Z,16.20
2023-03-26T07:44:22.259Z,16.50
2023-03-26T07:46:50.705Z,16.60
2023-03-26T07:49:21.312Z,16.60
2023-03-26T07:51:49.734Z,16.70
2023-03-26T07:54:19.670Z,16.80
2023-03-26T07:56:58.058Z,16.80
2023-03-26T07:59:45.095Z,17.70
2023-03-26T08:02:24.830Z,19.50
2023-03-26T08:05:13.141Z,21.80
2023-03-26T08:08:09.481Z,23.60
2023-03-26T08:11:22.899Z,23.90
2023-03-26T08:14:28.284Z,23.10
2023-03-26T08:17:08.150Z,22.60
2023-03-26T08:19:38.998Z,21.60
2023-03-26T08:22:14.018Z,20.70
2023-03-26T08:25:07.036Z,20.10
2023-03-26T08:27:41.634Z,19.70
2023-03-26T08:30:23.066Z,19.60
2023-03-26T08:33:17.212Z,20.60
2023-03-26T08:35:45.727Z,21.80
2023-03-26T08:38:14.362Z,23.70
2023-03-26T08:41:00.166Z,25.10
2023-03-26T08:43:48.576Z,25.60
2023-03-26T08:47:03.025Z,25.80
2023-03-26T08:50:04.605Z,25.40
2023-03-26T08:53:25.814Z,24.40
2023-03-26T08:55:58.435Z,24.00
2023-03-26T08:58:48.167Z,25.70
2023-03-26T09:01:34.207Z,27.00
2023-03-26T09:04:33.521Z,28.80
2023-03-26T09:30:41.574Z,34.80
2023-03-26T09:33:43.175Z,35.00
2023-03-26T09:36:27.988Z,35.30
2023-03-26T09:39:00.730Z,35.20
2023-03-26T09:41:44.245Z,35.50
2023-03-26T09:44:26.730Z,36.10
2023-03-26T09:47:10.007Z,36.50
2023-03-26T09:49:58.773Z,36.90
2023-03-26T09:53:07.579Z,37.60
2023-03-26T09:55:58.792Z,37.80
2023-03-26T10:05:23.660Z,39.10
2023-03-26T10:08:11.191Z,39.40
2023-03-26T10:10:56.857Z,39.60
2023-03-26T10:13:43.472Z,39.70
2023-03-26T10:40:59.851Z,36.00
2023-03-26T13:04:24.633Z,38.40
2023-03-26T13:07:10.614Z,39.40
2023-03-26T13:09:51.054Z,40.20
2023-03-26T13:12:28.625Z,40.70
2023-03-26T13:15:18.557Z,40.80
2023-03-26T13:18:25.124Z,40.80
2023-03-26T13:21:31.134Z,40.90
2023-03-26T13:24:23.095Z,41.20
2023-03-26T13:27:26.611Z,40.90
2023-03-26T13:33:59.591Z,38.60
2023-03-26T13:37:05.345Z,37.60
2023-03-26T13:40:14.401Z,36.30
2023-03-26T13:52:10.627Z,34.80
2023-03-26T13:54:48.300Z,35.00
2023-03-26T14:00:27.308Z,34.80
2023-03-26T14:06:13.148Z,32.40
2023-03-26T14:08:43.731Z,32.00
2023-03-26T14:16:58.322Z,31.80
2023-03-26T14:24:59.031Z,31.20
2023-03-26T14:27:52.754Z,30.60
2023-03-26T15:10:26.973Z,25.10
2023-03-26T15:13:25.610Z,25.00
2023-03-26T15:16:17.899Z,25.00
2023-03-26T15:19:19.485Z,24.80
2023-03-26T15:22:13.269Z,24.80
2023-03-26T15:25:25.656Z,24.60
2023-03-26T15:33:35.162Z,24.00
2023-03-26T15:37:00.958Z,23.90
2023-03-26T15:40:20.159Z,23.60
2023-03-26T15:44:22.675Z,23.50
2023-03-26T15:47:04.449Z,23.50
2023-03-26T15:49:54.046Z,23.60
2023-03-26T15:52:49.457Z,23.50
2023-03-26T15:55:16.876Z,23.50
2023-03-26T15:57:49.490Z,23.40
2023-03-26T16:00:29.441Z,23.40
2023-03-26T16:03:47.131Z,23.30
2023-03-26T16:15:27.750Z,22.60
2023-03-26T16:18:23.169Z,22.50
2023-03-26T16:21:31.919Z,22.30
2023-03-26T16:24:10.949Z,22.10
2023-03-26T16:26:55.897Z,22.10
2023-03-26T16:32:34.663Z,22.00
2023-03-26T16:35:17.203Z,21.90
2023-03-26T16:38:13.075Z,22.00
2023-03-26T16:55:54.247Z,21.70
2023-03-26T17:02:23.433Z,21.30
2023-03-26T18:01:32.510Z,20.10
2023-03-26T18:04:04.262Z,20.10
2023-03-26T18:06:50.278Z,20.00
2023-03-26T18:17:40.587Z,19.70
2023-03-26T18:20:37.271Z,19.70
2023-03-26T18:32:04.313Z,19.60
2023-03-26T20:10:37.931Z,18.80
2023-03-26T20:23:59.665Z,18.60
2023-03-26T20:29:13.139Z,18.60
2023-03-26T20:31:43.895Z,18.60
2023-03-26T20:42:37.836Z,18.50
2023-03-26T20:45:53.159Z,18.40
2023-03-26T21:45:12.891Z,17.60
2023-03-26T21:48:01.190Z,17.50
2023-03-26T21:50:40.105Z,17.50
2023-03-26T21:55:53.124Z,17.50
2023-03-26T22:09:12.932Z,17.10
2023-03-26T22:11:47.308Z,17.00
2023-03-26T22:14:15.134Z,16.90
2023-03-26T22:19:08.902Z,16.90
2023-03-26T22:21:42.277Z,17.00
2023-03-26T22:24:12.484Z,16.90
2023-03-26T22:29:29.005Z,16.80
2023-03-26T23:24:08.794Z,15.90
2023-03-26T23:26:49.545Z,15.90
2023-03-26T23:29:27.251Z,15.80
2023-03-26T23:31:56.383Z,15.90
2023-03-26T23:34:23.855Z,15.80
2023-03-26T23:36:54.114Z,15.70
2023-03-26T23:50:21.749Z,15.70
2023-03-26T23:52:55.270Z,15.70
2023-03-26T23:55:29.938Z,15.70
2023-03-26T23:58:09.693Z,15.80
